sensor_id;sensor_type;location;lat;lon;timestamp;P1;durP1;ratioP1;P2;durP2;ratioP2
5959;SDS011;3006;50.956;7.002;2023-08-31T00:00:50;8.17;;;4.20;;
5959;SDS011;3006;50.956;7.002;2023-08-31T00:03:19;8.33;;;3.53;;
5959;SDS011;3006;50.956;7.002;2023-08-31T00:05:47;5.07;;;3.03;;
5959;SDS011;3006;50.956;7.002;2023-08-31T00:08:19;5.77;;;3.03;;
5959;SDS011;3006;50.956;7.002;2023-08-31T00:10:54;8.20;;;3.80;;
5959;SDS011;3006;50.956;7.002;2023-08-31T00:13:24;8.60;;;3.40;;
5959;SDS011;3006;50.956;7.002;2023-08-31T00:15:54;8.17;;;3.27;;
5959;SDS011;3006;50.956;7.002;2023-08-31T00:18:24;6.17;;;3.00;;
5959;SDS011;3006;50.956;7.002;2023-08-31T00:20:52;7.03;;;3.10;;
5959;SDS011;3006;50.956;7.002;2023-08-31T00:23:22;13.83;;;3.20;;
5959;SDS011;3006;50.956;7.002;2023-08-31T00:25:50;9.50;;;2.93;;
5959;SDS011;3006;50.956;7.002;2023-08-31T00:28:20;7.03;;;3.50;;
5959;SDS011;3006;50.956;7.002;2023-08-31T00:30:49;7.87;;;3.37;;
5959;SDS011;3006;50.956;7.002;2023-08-31T00:33:18;5.50;;;3.40;;
5959;SDS011;3006;50.956;7.002;2023-08-31T00:35:46;10.37;;;3.60;;
5959;SDS011;3006;50.956;7.002;2023-08-31T00:38:15;7.77;;;3.53;;
5959;SDS011;3006;50.956;7.002;2023-08-31T00:40:45;8.83;;;3.60;;
5959;SDS011;3006;50.956;7.002;2023-08-31T00:43:14;7.07;;;3.50;;
5959;SDS011;3006;50.956;7.002;2023-08-31T00:45:44;9.40;;;3.60;;
5959;SDS011;3006;50.956;7.002;2023-08-31T00:48:14;5.73;;;3.87;;
5959;SDS011;3006;50.956;7.002;2023-08-31T00:50:43;9.80;;;3.87;;
5959;SDS011;3006;50.956;7.002;2023-08-31T00:53:12;15.63;;;3.70;;
5959;SDS011;3006;50.956;7.002;2023-08-31T00:55:41;7.57;;;3.47;;
5959;SDS011;3006;50.956;7.002;2023-08-31T00:58:11;14.33;;;4.23;;
5959;SDS011;3006;50.956;7.002;2023-08-31T01:00:43;12.50;;;4.30;;
5959;SDS011;3006;50.956;7.002;2023-08-31T01:03:13;11.50;;;3.60;;
5959;SDS011;3006;50.956;7.002;2023-08-31T01:05:44;7.87;;;3.03;;
5959;SDS011;3006;50.956;7.002;2023-08-31T01:08:19;11.10;;;3.60;;
5959;SDS011;3006;50.956;7.002;2023-08-31T01:10:55;14.93;;;3.40;;
5959;SDS011;3006;50.956;7.002;2023-08-31T01:13:27;4.23;;;3.50;;
5959;SDS011;3006;50.956;7.002;2023-08-31T01:16:00;9.03;;;4.07;;
5959;SDS011;3006;50.956;7.002;2023-08-31T01:18:31;7.97;;;4.10;;
5959;SDS011;3006;50.956;7.002;2023-08-31T01:21:04;7.03;;;3.70;;
5959;SDS011;3006;50.956;7.002;2023-08-31T01:23:44;6.47;;;3.17;;
5959;SDS011;3006;50.956;7.002;2023-08-31T01:26:13;9.90;;;4.07;;
5959;SDS011;3006;50.956;7.002;2023-08-31T01:28:41;7.00;;;3.50;;
5959;SDS011;3006;50.956;7.002;2023-08-31T01:31:10;5.97;;;3.80;;
5959;SDS011;3006;50.956;7.002;2023-08-31T01:33:39;9.13;;;4.60;;
5959;SDS011;3006;50.956;7.002;2023-08-31T01:36:08;12.30;;;4.63;;
5959;SDS011;3006;50.956;7.002;2023-08-31T01:38:40;7.80;;;3.70;;
5959;SDS011;3006;50.956;7.002;2023-08-31T01:41:13;7.57;;;4.10;;
5959;SDS011;3006;50.956;7.002;2023-08-31T01:43:42;13.43;;;4.10;;
5959;SDS011;3006;50.956;7.002;2023-08-31T01:46:12;4.20;;;3.80;;
5959;SDS011;3006;50.956;7.002;2023-08-31T01:48:40;11.73;;;3.80;;
5959;SDS011;3006;50.956;7.002;2023-08-31T01:51:10;5.67;;;4.10;;
5959;SDS011;3006;50.956;7.002;2023-08-31T01:53:39;7.37;;;3.80;;
5959;SDS011;3006;50.956;7.002;2023-08-31T01:56:08;10.53;;;4.03;;
5959;SDS011;3006;50.956;7.002;2023-08-31T01:58:37;9.70;;;3.73;;
5959;SDS011;3006;50.956;7.002;2023-08-31T02:01:08;8.63;;;4.27;;
5959;SDS011;3006;50.956;7.002;2023-08-31T02:03:38;6.90;;;4.33;;
5959;SDS011;3006;50.956;7.002;2023-08-31T02:06:07;8.60;;;4.20;;
5959;SDS011;3006;50.956;7.002;2023-08-31T02:08:35;8.83;;;4.10;;
5959;SDS011;3006;50.956;7.002;2023-08-31T02:11:04;8.00;;;4.40;;
5959;SDS011;3006;50.956;7.002;2023-08-31T02:13:32;7.23;;;3.63;;
5959;SDS011;3006;50.956;7.002;2023-08-31T02:16:02;10.60;;;4.87;;
5959;SDS011;3006;50.956;7.002;2023-08-31T02:18:30;8.23;;;4.07;;
5959;SDS011;3006;50.956;7.002;2023-08-31T02:20:59;4.47;;;3.27;;
5959;SDS011;3006;50.956;7.002;2023-08-31T02:23:28;7.80;;;3.73;;
5959;SDS011;3006;50.956;7.002;2023-08-31T02:25:56;6.60;;;3.33;;
5959;SDS011;3006;50.956;7.002;2023-08-31T02:28:24;5.70;;;2.90;;
5959;SDS011;3006;50.956;7.002;2023-08-31T02:30:57;5.63;;;2.80;;
5959;SDS011;3006;50.956;7.002;2023-08-31T02:33:30;7.70;;;3.10;;
5959;SDS011;3006;50.956;7.002;2023-08-31T02:35:59;9.80;;;2.80;;
5959;SDS011;3006;50.956;7.002;2023-08-31T02:38:27;5.93;;;2.83;;
5959;SDS011;3006;50.956;7.002;2023-08-31T02:40:56;7.70;;;3.30;;
5959;SDS011;3006;50.956;7.002;2023-08-31T02:43:24;6.97;;;2.47;;
5959;SDS011;3006;50.956;7.002;2023-08-31T02:45:58;5.70;;;3.20;;
5959;SDS011;3006;50.956;7.002;2023-08-31T02:48:27;6.40;;;2.53;;
5959;SDS011;3006;50.956;7.002;2023-08-31T02:50:58;3.93;;;3.10;;
5959;SDS011;3006;50.956;7.002;2023-08-31T02:53:27;10.23;;;3.17;;
5959;SDS011;3006;50.956;7.002;2023-08-31T02:55:56;4.30;;;3.10;;
5959;SDS011;3006;50.956;7.002;2023-08-31T02:58:24;8.77;;;2.70;;
5959;SDS011;3006;50.956;7.002;2023-08-31T03:00:53;3.80;;;2.50;;
5959;SDS011;3006;50.956;7.002;2023-08-31T03:03:22;4.77;;;2.60;;
5959;SDS011;3006;50.956;7.002;2023-08-31T03:05:54;7.00;;;2.30;;
5959;SDS011;3006;50.956;7.002;2023-08-31T03:08:24;3.83;;;2.40;;
5959;SDS011;3006;50.956;7.002;2023-08-31T03:10:53;6.37;;;3.13;;
5959;SDS011;3006;50.956;7.002;2023-08-31T03:13:22;4.63;;;3.37;;
5959;SDS011;3006;50.956;7.002;2023-08-31T03:15:50;6.33;;;3.57;;
5959;SDS011;3006;50.956;7.002;2023-08-31T03:18:19;8.63;;;3.00;;
5959;SDS011;3006;50.956;7.002;2023-08-31T03:20:47;5.70;;;3.30;;
5959;SDS011;3006;50.956;7.002;2023-08-31T03:23:16;11.80;;;3.80;;
5959;SDS011;3006;50.956;7.002;2023-08-31T03:25:46;4.37;;;2.87;;
5959;SDS011;3006;50.956;7.002;2023-08-31T03:28:15;7.17;;;3.07;;
5959;SDS011;3006;50.956;7.002;2023-08-31T03:30:43;5.13;;;2.97;;
5959;SDS011;3006;50.956;7.002;2023-08-31T03:33:12;5.63;;;2.70;;
5959;SDS011;3006;50.956;7.002;2023-08-31T03:35:41;4.40;;;2.73;;
5959;SDS011;3006;50.956;7.002;2023-08-31T03:38:10;4.50;;;2.97;;
5959;SDS011;3006;50.956;7.002;2023-08-31T03:40:38;4.70;;;2.63;;
5959;SDS011;3006;50.956;7.002;2023-08-31T03:43:08;4.47;;;2.80;;
5959;SDS011;3006;50.956;7.002;2023-08-31T03:45:38;5.70;;;3.33;;
5959;SDS011;3006;50.956;7.002;2023-08-31T03:48:06;5.40;;;3.10;;
5959;SDS011;3006;50.956;7.002;2023-08-31T03:50:36;4.97;;;2.70;;
5959;SDS011;3006;50.956;7.002;2023-08-31T03:53:05;9.37;;;3.40;;
5959;SDS011;3006;50.956;7.002;2023-08-31T03:55:35;3.73;;;3.20;;
5959;SDS011;3006;50.956;7.002;2023-08-31T03:58:04;6.77;;;4.80;;
5959;SDS011;3006;50.956;7.002;2023-08-31T04:00:34;5.00;;;3.87;;
5959;SDS011;3006;50.956;7.002;2023-08-31T04:03:03;7.93;;;3.00;;
5959;SDS011;3006;50.956;7.002;2023-08-31T04:05:32;7.00;;;3.60;;
5959;SDS011;3006;50.956;7.002;2023-08-31T04:08:02;7.67;;;4.00;;
5959;SDS011;3006;50.956;7.002;2023-08-31T04:10:33;5.60;;;3.90;;
5959;SDS011;3006;50.956;7.002;2023-08-31T04:13:02;4.60;;;3.50;;
5959;SDS011;3006;50.956;7.002;2023-08-31T04:15:32;4.17;;;3.00;;
5959;SDS011;3006;50.956;7.002;2023-08-31T04:18:02;5.23;;;3.23;;
5959;SDS011;3006;50.956;7.002;2023-08-31T04:20:32;6.17;;;3.60;;
5959;SDS011;3006;50.956;7.002;2023-08-31T04:23:00;7.33;;;3.30;;
5959;SDS011;3006;50.956;7.002;2023-08-31T04:25:29;7.10;;;3.53;;
5959;SDS011;3006;50.956;7.002;2023-08-31T04:27:58;4.47;;;2.73;;
5959;SDS011;3006;50.956;7.002;2023-08-31T04:30:26;6.10;;;3.40;;
5959;SDS011;3006;50.956;7.002;2023-08-31T04:32:55;4.90;;;3.90;;
5959;SDS011;3006;50.956;7.002;2023-08-31T04:35:25;6.80;;;3.53;;
5959;SDS011;3006;50.956;7.002;2023-08-31T04:37:53;6.60;;;4.00;;
5959;SDS011;3006;50.956;7.002;2023-08-31T04:40:21;6.53;;;3.97;;
5959;SDS011;3006;50.956;7.002;2023-08-31T04:42:50;5.40;;;3.63;;
5959;SDS011;3006;50.956;7.002;2023-08-31T04:45:19;6.40;;;3.97;;
5959;SDS011;3006;50.956;7.002;2023-08-31T04:47:47;10.27;;;3.97;;
5959;SDS011;3006;50.956;7.002;2023-08-31T04:50:17;7.80;;;3.77;;
5959;SDS011;3006;50.956;7.002;2023-08-31T04:52:47;8.10;;;3.47;;
5959;SDS011;3006;50.956;7.002;2023-08-31T04:55:15;6.27;;;3.77;;
5959;SDS011;3006;50.956;7.002;2023-08-31T04:57:44;10.10;;;3.67;;
5959;SDS011;3006;50.956;7.002;2023-08-31T05:00:12;3.40;;;3.10;;
5959;SDS011;3006;50.956;7.002;2023-08-31T05:02:41;9.03;;;4.00;;
5959;SDS011;3006;50.956;7.002;2023-08-31T05:05:10;4.70;;;3.23;;
5959;SDS011;3006;50.956;7.002;2023-08-31T05:07:39;12.53;;;3.70;;
5959;SDS011;3006;50.956;7.002;2023-08-31T05:10:09;17.70;;;3.93;;
5959;SDS011;3006;50.956;7.002;2023-08-31T05:12:38;7.43;;;3.50;;
5959;SDS011;3006;50.956;7.002;2023-08-31T05:15:06;5.20;;;3.43;;
5959;SDS011;3006;50.956;7.002;2023-08-31T05:17:35;4.40;;;3.13;;
5959;SDS011;3006;50.956;7.002;2023-08-31T05:20:05;7.30;;;3.70;;
5959;SDS011;3006;50.956;7.002;2023-08-31T05:22:34;5.33;;;3.27;;
5959;SDS011;3006;50.956;7.002;2023-08-31T05:25:03;8.47;;;4.10;;
5959;SDS011;3006;50.956;7.002;2023-08-31T05:27:33;6.03;;;3.70;;
5959;SDS011;3006;50.956;7.002;2023-08-31T05:30:02;6.20;;;4.00;;
5959;SDS011;3006;50.956;7.002;2023-08-31T05:32:31;11.73;;;4.40;;
5959;SDS011;3006;50.956;7.002;2023-08-31T05:34:59;11.20;;;3.97;;
5959;SDS011;3006;50.956;7.002;2023-08-31T05:37:31;12.73;;;3.80;;
5959;SDS011;3006;50.956;7.002;2023-08-31T05:39:59;6.10;;;3.80;;
5959;SDS011;3006;50.956;7.002;2023-08-31T05:42:33;7.77;;;3.60;;
5959;SDS011;3006;50.956;7.002;2023-08-31T05:45:02;6.00;;;4.00;;
5959;SDS011;3006;50.956;7.002;2023-08-31T05:47:30;6.30;;;4.23;;
5959;SDS011;3006;50.956;7.002;2023-08-31T05:49:59;8.27;;;3.93;;
5959;SDS011;3006;50.956;7.002;2023-08-31T05:52:30;5.73;;;3.80;;
5959;SDS011;3006;50.956;7.002;2023-08-31T05:54:59;8.40;;;4.10;;
5959;SDS011;3006;50.956;7.002;2023-08-31T05:57:27;9.57;;;4.03;;
5959;SDS011;3006;50.956;7.002;2023-08-31T05:59:57;6.10;;;4.07;;
5959;SDS011;3006;50.956;7.002;2023-08-31T06:02:25;5.97;;;3.93;;
5959;SDS011;3006;50.956;7.002;2023-08-31T06:04:54;5.37;;;3.93;;
5959;SDS011;3006;50.956;7.002;2023-08-31T06:07:23;8.77;;;3.77;;
5959;SDS011;3006;50.956;7.002;2023-08-31T06:09:51;8.97;;;4.33;;
5959;SDS011;3006;50.956;7.002;2023-08-31T06:12:20;13.73;;;4.37;;
5959;SDS011;3006;50.956;7.002;2023-08-31T06:14:48;8.87;;;3.60;;
5959;SDS011;3006;50.956;7.002;2023-08-31T06:17:18;10.43;;;4.23;;
5959;SDS011;3006;50.956;7.002;2023-08-31T06:19:46;7.80;;;4.30;;
5959;SDS011;3006;50.956;7.002;2023-08-31T06:22:15;5.80;;;3.73;;
5959;SDS011;3006;50.956;7.002;2023-08-31T06:24:44;13.43;;;3.70;;
5959;SDS011;3006;50.956;7.002;2023-08-31T06:27:15;9.37;;;3.80;;
5959;SDS011;3006;50.956;7.002;2023-08-31T06:29:44;7.10;;;3.33;;
5959;SDS011;3006;50.956;7.002;2023-08-31T06:32:12;6.77;;;3.60;;
5959;SDS011;3006;50.956;7.002;2023-08-31T06:34:42;6.00;;;3.30;;
5959;SDS011;3006;50.956;7.002;2023-08-31T06:37:11;9.33;;;4.73;;
5959;SDS011;3006;50.956;7.002;2023-08-31T06:39:39;10.70;;;3.83;;
5959;SDS011;3006;50.956;7.002;2023-08-31T06:42:08;5.00;;;3.17;;
5959;SDS011;3006;50.956;7.002;2023-08-31T06:44:37;6.53;;;3.43;;
5959;SDS011;3006;50.956;7.002;2023-08-31T06:47:06;9.87;;;3.90;;
5959;SDS011;3006;50.956;7.002;2023-08-31T06:49:34;11.63;;;3.20;;
5959;SDS011;3006;50.956;7.002;2023-08-31T06:52:04;5.90;;;3.10;;
5959;SDS011;3006;50.956;7.002;2023-08-31T06:54:55;5.10;;;3.13;;
5959;SDS011;3006;50.956;7.002;2023-08-31T06:57:30;7.63;;;2.83;;
5959;SDS011;3006;50.956;7.002;2023-08-31T06:59:58;6.87;;;2.80;;
5959;SDS011;3006;50.956;7.002;2023-08-31T07:02:29;13.17;;;3.30;;
5959;SDS011;3006;50.956;7.002;2023-08-31T07:04:58;5.40;;;3.10;;
5959;SDS011;3006;50.956;7.002;2023-08-31T07:07:27;6.23;;;2.63;;
5959;SDS011;3006;50.956;7.002;2023-08-31T07:09:56;18.60;;;2.97;;
5959;SDS011;3006;50.956;7.002;2023-08-31T07:12:24;5.10;;;2.70;;
5959;SDS011;3006;50.956;7.002;2023-08-31T07:14:53;5.70;;;3.53;;
5959;SDS011;3006;50.956;7.002;2023-08-31T07:17:22;4.80;;;3.20;;
5959;SDS011;3006;50.956;7.002;2023-08-31T07:19:50;7.37;;;3.50;;
5959;SDS011;3006;50.956;7.002;2023-08-31T07:22:18;12.43;;;3.03;;
5959;SDS011;3006;50.956;7.002;2023-08-31T07:24:48;16.53;;;2.80;;
5959;SDS011;3006;50.956;7.002;2023-08-31T07:27:17;7.63;;;2.80;;
5959;SDS011;3006;50.956;7.002;2023-08-31T07:29:46;6.00;;;2.60;;
5959;SDS011;3006;50.956;7.002;2023-08-31T07:32:14;8.87;;;3.00;;
5959;SDS011;3006;50.956;7.002;2023-08-31T07:34:42;9.70;;;2.90;;
5959;SDS011;3006;50.956;7.002;2023-08-31T07:37:11;8.30;;;2.77;;
5959;SDS011;3006;50.956;7.002;2023-08-31T07:39:39;12.90;;;2.73;;
5959;SDS011;3006;50.956;7.002;2023-08-31T07:42:09;3.43;;;2.40;;
5959;SDS011;3006;50.956;7.002;2023-08-31T07:44:38;6.30;;;2.50;;
5959;SDS011;3006;50.956;7.002;2023-08-31T07:47:09;4.33;;;2.23;;
5959;SDS011;3006;50.956;7.002;2023-08-31T07:49:37;6.40;;;3.10;;
5959;SDS011;3006;50.956;7.002;2023-08-31T07:52:06;7.00;;;3.00;;
5959;SDS011;3006;50.956;7.002;2023-08-31T07:54:34;5.73;;;2.43;;
5959;SDS011;3006;50.956;7.002;2023-08-31T07:57:03;5.53;;;2.40;;
5959;SDS011;3006;50.956;7.002;2023-08-31T07:59:33;7.57;;;2.53;;
5959;SDS011;3006;50.956;7.002;2023-08-31T08:02:01;4.67;;;2.57;;
5959;SDS011;3006;50.956;7.002;2023-08-31T08:04:30;4.77;;;2.80;;
5959;SDS011;3006;50.956;7.002;2023-08-31T08:06:58;6.57;;;1.90;;
5959;SDS011;3006;50.956;7.002;2023-08-31T08:09:26;7.47;;;2.97;;
5959;SDS011;3006;50.956;7.002;2023-08-31T08:11:56;8.30;;;2.60;;
5959;SDS011;3006;50.956;7.002;2023-08-31T08:14:24;3.97;;;2.37;;
5959;SDS011;3006;50.956;7.002;2023-08-31T08:16:54;6.93;;;2.43;;
5959;SDS011;3006;50.956;7.002;2023-08-31T08:19:23;4.87;;;2.03;;
5959;SDS011;3006;50.956;7.002;2023-08-31T08:21:51;7.30;;;2.30;;
5959;SDS011;3006;50.956;7.002;2023-08-31T08:24:20;6.00;;;2.00;;
5959;SDS011;3006;50.956;7.002;2023-08-31T08:26:49;6.93;;;2.60;;
5959;SDS011;3006;50.956;7.002;2023-08-31T08:29:26;5.97;;;2.47;;
5959;SDS011;3006;50.956;7.002;2023-08-31T08:31:56;6.63;;;2.30;;
5959;SDS011;3006;50.956;7.002;2023-08-31T08:34:25;5.00;;;2.37;;
5959;SDS011;3006;50.956;7.002;2023-08-31T08:36:54;6.50;;;2.37;;
5959;SDS011;3006;50.956;7.002;2023-08-31T08:39:22;7.57;;;2.70;;
5959;SDS011;3006;50.956;7.002;2023-08-31T08:41:51;5.10;;;2.17;;
5959;SDS011;3006;50.956;7.002;2023-08-31T08:44:21;5.40;;;2.63;;
5959;SDS011;3006;50.956;7.002;2023-08-31T08:46:50;4.30;;;2.13;;
5959;SDS011;3006;50.956;7.002;2023-08-31T08:49:20;7.20;;;2.40;;
5959;SDS011;3006;50.956;7.002;2023-08-31T08:51:49;7.93;;;2.87;;
5959;SDS011;3006;50.956;7.002;2023-08-31T08:54:18;8.43;;;2.30;;
5959;SDS011;3006;50.956;7.002;2023-08-31T08:56:46;5.00;;;2.67;;
5959;SDS011;3006;50.956;7.002;2023-08-31T08:59:15;10.20;;;2.40;;
5959;SDS011;3006;50.956;7.002;2023-08-31T09:01:45;7.60;;;2.60;;
5959;SDS011;3006;50.956;7.002;2023-08-31T09:04:14;9.20;;;2.57;;
5959;SDS011;3006;50.956;7.002;2023-08-31T09:06:43;8.40;;;2.67;;
5959;SDS011;3006;50.956;7.002;2023-08-31T09:09:12;9.13;;;3.20;;
5959;SDS011;3006;50.956;7.002;2023-08-31T09:11:41;8.37;;;3.40;;
5959;SDS011;3006;50.956;7.002;2023-08-31T09:14:15;7.00;;;2.70;;
5959;SDS011;3006;50.956;7.002;2023-08-31T09:16:44;7.87;;;2.67;;
5959;SDS011;3006;50.956;7.002;2023-08-31T09:19:17;14.13;;;2.40;;
5959;SDS011;3006;50.956;7.002;2023-08-31T09:21:48;7.03;;;2.13;;
5959;SDS011;3006;50.956;7.002;2023-08-31T09:24:17;5.97;;;2.70;;
5959;SDS011;3006;50.956;7.002;2023-08-31T09:26:45;4.23;;;2.50;;
5959;SDS011;3006;50.956;7.002;2023-08-31T09:29:14;10.53;;;4.90;;
5959;SDS011;3006;50.956;7.002;2023-08-31T09:31:42;7.17;;;2.80;;
5959;SDS011;3006;50.956;7.002;2023-08-31T09:34:11;2.97;;;2.10;;
5959;SDS011;3006;50.956;7.002;2023-08-31T09:36:40;6.03;;;2.17;;
5959;SDS011;3006;50.956;7.002;2023-08-31T09:39:10;4.70;;;2.20;;
5959;SDS011;3006;50.956;7.002;2023-08-31T09:41:52;3.80;;;2.03;;
5959;SDS011;3006;50.956;7.002;2023-08-31T09:44:20;6.10;;;2.30;;
5959;SDS011;3006;50.956;7.002;2023-08-31T09:46:49;6.20;;;1.77;;
5959;SDS011;3006;50.956;7.002;2023-08-31T09:49:18;4.43;;;2.43;;
5959;SDS011;3006;50.956;7.002;2023-08-31T09:51:49;10.13;;;2.00;;
5959;SDS011;3006;50.956;7.002;2023-08-31T09:54:19;6.87;;;2.20;;
5959;SDS011;3006;50.956;7.002;2023-08-31T09:56:48;5.93;;;2.10;;
5959;SDS011;3006;50.956;7.002;2023-08-31T09:59:16;6.70;;;2.33;;
5959;SDS011;3006;50.956;7.002;2023-08-31T10:01:45;7.80;;;2.33;;
5959;SDS011;3006;50.956;7.002;2023-08-31T10:04:14;3.83;;;2.10;;
5959;SDS011;3006;50.956;7.002;2023-08-31T10:06:43;7.10;;;2.33;;
5959;SDS011;3006;50.956;7.002;2023-08-31T10:09:11;10.20;;;2.40;;
5959;SDS011;3006;50.956;7.002;2023-08-31T10:11:42;6.83;;;1.87;;
5959;SDS011;3006;50.956;7.002;2023-08-31T10:14:11;4.77;;;2.20;;
5959;SDS011;3006;50.956;7.002;2023-08-31T10:16:39;5.07;;;2.40;;
5959;SDS011;3006;50.956;7.002;2023-08-31T10:19:09;6.33;;;2.40;;
5959;SDS011;3006;50.956;7.002;2023-08-31T10:21:37;5.00;;;2.07;;
5959;SDS011;3006;50.956;7.002;2023-08-31T10:24:06;4.83;;;1.77;;
5959;SDS011;3006;50.956;7.002;2023-08-31T10:26:34;2.83;;;1.70;;
5959;SDS011;3006;50.956;7.002;2023-08-31T10:29:04;3.03;;;1.80;;
5959;SDS011;3006;50.956;7.002;2023-08-31T10:31:33;6.67;;;2.00;;
5959;SDS011;3006;50.956;7.002;2023-08-31T10:34:04;2.80;;;1.80;;
5959;SDS011;3006;50.956;7.002;2023-08-31T10:36:37;5.17;;;1.87;;
5959;SDS011;3006;50.956;7.002;2023-08-31T10:39:11;3.10;;;1.53;;
5959;SDS011;3006;50.956;7.002;2023-08-31T10:41:40;8.20;;;1.77;;
5959;SDS011;3006;50.956;7.002;2023-08-31T10:44:19;3.53;;;1.60;;
5959;SDS011;3006;50.956;7.002;2023-08-31T10:46:48;6.27;;;1.90;;
5959;SDS011;3006;50.956;7.002;2023-08-31T10:49:17;5.73;;;1.60;;
5959;SDS011;3006;50.956;7.002;2023-08-31T10:51:46;3.47;;;1.90;;
5959;SDS011;3006;50.956;7.002;2023-08-31T10:54:19;3.17;;;1.97;;
5959;SDS011;3006;50.956;7.002;2023-08-31T10:56:55;6.07;;;2.97;;
5959;SDS011;3006;50.956;7.002;2023-08-31T10:59:50;6.97;;;2.53;;
5959;SDS011;3006;50.956;7.002;2023-08-31T11:02:28;6.67;;;2.27;;
5959;SDS011;3006;50.956;7.002;2023-08-31T11:05:02;3.07;;;1.80;;
5959;SDS011;3006;50.956;7.002;2023-08-31T11:07:31;2.97;;;1.80;;
5959;SDS011;3006;50.956;7.002;2023-08-31T11:10:07;5.23;;;2.37;;
5959;SDS011;3006;50.956;7.002;2023-08-31T11:12:36;8.27;;;2.43;;
5959;SDS011;3006;50.956;7.002;2023-08-31T11:15:06;11.53;;;2.40;;
5959;SDS011;3006;50.956;7.002;2023-08-31T11:17:36;5.77;;;2.37;;
5959;SDS011;3006;50.956;7.002;2023-08-31T11:20:07;4.87;;;2.03;;
5959;SDS011;3006;50.956;7.002;2023-08-31T11:22:38;4.23;;;2.00;;
5959;SDS011;3006;50.956;7.002;2023-08-31T11:25:08;4.60;;;2.30;;
5959;SDS011;3006;50.956;7.002;2023-08-31T11:27:36;7.77;;;3.53;;
5959;SDS011;3006;50.956;7.002;2023-08-31T11:30:12;7.97;;;3.93;;
5959;SDS011;3006;50.956;7.002;2023-08-31T11:32:44;7.10;;;2.50;;
5959;SDS011;3006;50.956;7.002;2023-08-31T11:35:13;3.33;;;1.90;;
5959;SDS011;3006;50.956;7.002;2023-08-31T11:37:42;4.67;;;2.27;;
5959;SDS011;3006;50.956;7.002;2023-08-31T11:40:11;4.60;;;2.07;;
5959;SDS011;3006;50.956;7.002;2023-08-31T11:42:42;6.10;;;2.50;;
5959;SDS011;3006;50.956;7.002;2023-08-31T11:45:11;4.40;;;2.20;;
5959;SDS011;3006;50.956;7.002;2023-08-31T11:47:41;6.00;;;2.93;;
5959;SDS011;3006;50.956;7.002;2023-08-31T11:50:10;5.00;;;2.27;;
5959;SDS011;3006;50.956;7.002;2023-08-31T11:52:39;6.47;;;2.50;;
5959;SDS011;3006;50.956;7.002;2023-08-31T11:55:10;8.70;;;2.97;;
5959;SDS011;3006;50.956;7.002;2023-08-31T11:57:39;5.07;;;2.67;;
5959;SDS011;3006;50.956;7.002;2023-08-31T12:00:07;5.77;;;2.13;;
5959;SDS011;3006;50.956;7.002;2023-08-31T12:02:38;5.20;;;2.93;;
5959;SDS011;3006;50.956;7.002;2023-08-31T12:05:07;7.20;;;2.10;;
5959;SDS011;3006;50.956;7.002;2023-08-31T12:07:39;5.67;;;2.10;;
5959;SDS011;3006;50.956;7.002;2023-08-31T12:10:08;9.57;;;2.13;;
5959;SDS011;3006;50.956;7.002;2023-08-31T12:12:37;4.20;;;1.73;;
5959;SDS011;3006;50.956;7.002;2023-08-31T12:15:05;2.57;;;2.00;;
5959;SDS011;3006;50.956;7.002;2023-08-31T12:17:36;7.60;;;1.90;;
5959;SDS011;3006;50.956;7.002;2023-08-31T12:20:07;3.77;;;2.20;;
5959;SDS011;3006;50.956;7.002;2023-08-31T12:22:36;2.60;;;1.83;;
5959;SDS011;3006;50.956;7.002;2023-08-31T12:25:05;5.13;;;2.27;;
5959;SDS011;3006;50.956;7.002;2023-08-31T12:27:33;6.87;;;2.50;;
5959;SDS011;3006;50.956;7.002;2023-08-31T12:30:02;7.17;;;2.47;;
5959;SDS011;3006;50.956;7.002;2023-08-31T12:32:31;4.20;;;2.30;;
5959;SDS011;3006;50.956;7.002;2023-08-31T12:35:00;6.27;;;2.23;;
5959;SDS011;3006;50.956;7.002;2023-08-31T12:37:31;7.83;;;3.00;;
5959;SDS011;3006;50.956;7.002;2023-08-31T12:39:59;5.17;;;2.77;;
5959;SDS011;3006;50.956;7.002;2023-08-31T12:42:31;13.07;;;3.70;;
5959;SDS011;3006;50.956;7.002;2023-08-31T12:44:59;8.43;;;2.83;;
5959;SDS011;3006;50.956;7.002;2023-08-31T12:47:27;6.47;;;2.60;;
5959;SDS011;3006;50.956;7.002;2023-08-31T12:49:56;7.70;;;2.40;;
5959;SDS011;3006;50.956;7.002;2023-08-31T12:52:24;5.47;;;2.30;;
5959;SDS011;3006;50.956;7.002;2023-08-31T12:54:54;8.20;;;2.33;;
5959;SDS011;3006;50.956;7.002;2023-08-31T12:57:23;4.67;;;1.97;;
5959;SDS011;3006;50.956;7.002;2023-08-31T12:59:51;4.77;;;2.13;;
5959;SDS011;3006;50.956;7.002;2023-08-31T13:02:20;7.00;;;2.40;;
5959;SDS011;3006;50.956;7.002;2023-08-31T13:04:49;2.80;;;2.10;;
5959;SDS011;3006;50.956;7.002;2023-08-31T13:07:17;13.23;;;3.27;;
5959;SDS011;3006;50.956;7.002;2023-08-31T13:09:45;4.77;;;2.50;;
5959;SDS011;3006;50.956;7.002;2023-08-31T13:12:15;7.07;;;2.70;;
5959;SDS011;3006;50.956;7.002;2023-08-31T13:14:45;7.33;;;5.07;;
5959;SDS011;3006;50.956;7.002;2023-08-31T13:17:13;9.00;;;4.20;;
5959;SDS011;3006;50.956;7.002;2023-08-31T13:19:44;3.63;;;2.70;;
5959;SDS011;3006;50.956;7.002;2023-08-31T13:22:12;11.80;;;3.30;;
5959;SDS011;3006;50.956;7.002;2023-08-31T13:24:42;7.03;;;2.63;;
5959;SDS011;3006;50.956;7.002;2023-08-31T13:27:11;5.53;;;2.40;;
5959;SDS011;3006;50.956;7.002;2023-08-31T13:29:41;5.33;;;2.20;;
5959;SDS011;3006;50.956;7.002;2023-08-31T13:32:10;3.73;;;2.03;;
5959;SDS011;3006;50.956;7.002;2023-08-31T13:34:38;8.63;;;2.50;;
5959;SDS011;3006;50.956;7.002;2023-08-31T13:37:07;4.33;;;2.43;;
5959;SDS011;3006;50.956;7.002;2023-08-31T13:39:36;4.53;;;2.40;;
5959;SDS011;3006;50.956;7.002;2023-08-31T13:42:06;5.13;;;1.83;;
5959;SDS011;3006;50.956;7.002;2023-08-31T13:44:35;6.13;;;2.70;;
5959;SDS011;3006;50.956;7.002;2023-08-31T13:47:05;5.63;;;3.10;;
5959;SDS011;3006;50.956;7.002;2023-08-31T13:49:33;5.70;;;2.10;;
5959;SDS011;3006;50.956;7.002;2023-08-31T13:52:02;7.17;;;2.80;;
5959;SDS011;3006;50.956;7.002;2023-08-31T13:54:33;9.70;;;3.37;;
5959;SDS011;3006;50.956;7.002;2023-08-31T13:57:01;5.27;;;2.80;;
5959;SDS011;3006;50.956;7.002;2023-08-31T13:59:30;4.53;;;2.50;;
5959;SDS011;3006;50.956;7.002;2023-08-31T14:01:58;3.47;;;2.23;;
5959;SDS011;3006;50.956;7.002;2023-08-31T14:04:28;7.93;;;3.20;;
5959;SDS011;3006;50.956;7.002;2023-08-31T14:06:57;5.80;;;3.20;;
5959;SDS011;3006;50.956;7.002;2023-08-31T14:09:25;7.20;;;3.10;;
5959;SDS011;3006;50.956;7.002;2023-08-31T14:11:54;6.10;;;3.60;;
5959;SDS011;3006;50.956;7.002;2023-08-31T14:14:23;8.20;;;3.13;;
5959;SDS011;3006;50.956;7.002;2023-08-31T14:16:52;4.67;;;2.83;;
5959;SDS011;3006;50.956;7.002;2023-08-31T14:19:21;4.07;;;2.47;;
5959;SDS011;3006;50.956;7.002;2023-08-31T14:21:51;4.60;;;2.90;;
5959;SDS011;3006;50.956;7.002;2023-08-31T14:24:20;5.77;;;3.17;;
5959;SDS011;3006;50.956;7.002;2023-08-31T14:26:48;5.63;;;2.80;;
5959;SDS011;3006;50.956;7.002;2023-08-31T14:29:17;3.77;;;2.40;;
5959;SDS011;3006;50.956;7.002;2023-08-31T14:31:46;4.03;;;2.80;;
5959;SDS011;3006;50.956;7.002;2023-08-31T14:34:14;5.30;;;2.93;;
5959;SDS011;3006;50.956;7.002;2023-08-31T14:36:43;6.70;;;3.17;;
5959;SDS011;3006;50.956;7.002;2023-08-31T14:39:13;6.30;;;3.23;;
5959;SDS011;3006;50.956;7.002;2023-08-31T14:41:42;7.77;;;2.90;;
5959;SDS011;3006;50.956;7.002;2023-08-31T14:44:10;2.60;;;1.93;;
5959;SDS011;3006;50.956;7.002;2023-08-31T14:46:39;3.90;;;2.60;;
5959;SDS011;3006;50.956;7.002;2023-08-31T14:49:07;5.00;;;2.13;;
5959;SDS011;3006;50.956;7.002;2023-08-31T14:51:36;6.13;;;2.60;;
5959;SDS011;3006;50.956;7.002;2023-08-31T14:54:07;4.90;;;2.40;;
5959;SDS011;3006;50.956;7.002;2023-08-31T14:56:37;5.27;;;2.40;;
5959;SDS011;3006;50.956;7.002;2023-08-31T14:59:05;3.97;;;2.63;;
5959;SDS011;3006;50.956;7.002;2023-08-31T15:01:34;4.47;;;2.53;;
5959;SDS011;3006;50.956;7.002;2023-08-31T15:04:02;6.10;;;2.83;;
5959;SDS011;3006;50.956;7.002;2023-08-31T15:06:31;6.93;;;2.20;;
5959;SDS011;3006;50.956;7.002;2023-08-31T15:08:59;5.37;;;2.47;;
5959;SDS011;3006;50.956;7.002;2023-08-31T15:11:28;5.10;;;3.40;;
5959;SDS011;3006;50.956;7.002;2023-08-31T15:13:58;9.07;;;2.80;;
5959;SDS011;3006;50.956;7.002;2023-08-31T15:16:26;6.57;;;2.57;;
5959;SDS011;3006;50.956;7.002;2023-08-31T15:18:55;6.77;;;2.50;;
5959;SDS011;3006;50.956;7.002;2023-08-31T15:21:23;11.00;;;2.40;;
5959;SDS011;3006;50.956;7.002;2023-08-31T15:23:52;6.07;;;2.60;;
5959;SDS011;3006;50.956;7.002;2023-08-31T15:26:21;6.30;;;2.20;;
5959;SDS011;3006;50.956;7.002;2023-08-31T15:28:50;4.90;;;2.20;;